Time,TemperatureF,DewpointF,PressureIn,WindDirection,WindDirectionDegrees,WindSpeedMPH,WindSpeedGustMPH,Humidity,HourlyPrecipIn,Conditions,Clouds,dailyrainin,SoftwareType,DateUTC
2017-11-19 00:02:00,70.1,65.0,29.97,NNW,338,0.0,-999.0,85,0.00,,,0.00,,2017-11-19 05:02:00,
2017-11-19 00:07:00,70.0,65.0,29.97,NNW,338,0.0,-999.0,85,0.00,,,0.00,,2017-11-19 05:07:00,
2017-11-19 00:12:00,69.6,64.0,29.97,NNW,338,0.0,-999.0,83,0.00,,,0.00,,2017-11-19 05:12:00,
2017-11-19 00:17:00,69.6,64.0,29.97,NNW,338,0.0,-999.0,83,0.00,,,0.00,,2017-11-19 05:17:00,
2017-11-19 00:22:00,69.6,64.0,29.97,NNW,338,0.0,-999.0,83,0.00,,,0.00,,2017-11-19 05:22:00,
2017-11-19 00:27:00,69.3,64.0,29.98,NNW,338,0.0,-999.0,85,0.00,,,0.00,,2017-11-19 05:27:00,
2017-11-19 00:33:00,68.9,64.0,29.97,NNW,338,0.0,-999.0,85,0.00,,,0.00,,2017-11-19 05:33:00,
2017-11-19 00:38:00,69.3,64.0,29.98,NNW,338,0.0,-999.0,85,0.00,,,0.00,,2017-11-19 05:38:00,
2017-11-19 00:53:00,68.4,63.0,29.96,NNW,338,0.0,-999.0,85,0.00,,,0.00,,2017-11-19 05:53:00,
2017-11-19 00:59:00,69.0,64.0,29.97,NW,315,0.0,-999.0,86,0.00,,,0.00,,2017-11-19 05:59:00,
2017-11-19 01:04:00,68.9,64.0,29.97,NW,315,0.0,-999.0,86,0.00,,,0.00,,2017-11-19 06:04:00,
2017-11-19 01:09:00,68.4,64.0,29.97,NW,315,1.0,-999.0,86,0.00,,,0.00,,2017-11-19 06:09:00,
2017-11-19 01:14:00,68.1,63.0,29.97,NNW,338,0.0,-999.0,86,0.00,,,0.00,,2017-11-19 06:14:00,
2017-11-19 01:19:00,68.1,63.0,29.97,NW,315,1.0,-999.0,85,0.00,,,0.00,,2017-11-19 06:19:00,
2017-11-19 01:29:00,67.8,62.0,29.97,NNW,338,0.0,-999.0,83,0.00,,,0.00,,2017-11-19 06:29:00,
2017-11-19 01:34:00,67.6,62.0,29.96,NW,315,0.0,-999.0,83,0.00,,,0.00,,2017-11-19 06:34:00,
2017-11-19 01:39:00,67.6,62.0,29.97,NNW,338,0.0,-999.0,83,0.00,,,0.00,,2017-11-19 06:39:00,
2017-11-19 01:44:00,67.1,62.0,29.97,NNW,338,0.0,-999.0,83,0.00,,,0.00,,2017-11-19 06:44:00,
2017-11-19 02:04:00,66.9,61.0,29.96,NNW,338,0.0,-999.0,83,0.00,,,0.00,,2017-11-19 07:04:00,
2017-11-19 02:09:00,66.6,61.0,29.96,NNW,338,0.0,-999.0,83,0.00,,,0.00,,2017-11-19 07:09:00,
2017-11-19 02:14:00,66.6,61.0,29.96,NW,315,0.0,-999.0,83,0.00,,,0.00,,2017-11-19 07:14:00,
2017-11-19 02:19:00,66.5,61.0,29.96,NNW,338,0.0,-999.0,83,0.00,,,0.00,,2017-11-19 07:19:00,
2017-11-19 02:29:00,66.4,61.0,29.96,NNW,338,0.0,-999.0,83,0.00,,,0.00,,2017-11-19 07:29:00,
2017-11-19 02:35:00,66.1,61.0,29.96,NNW,338,0.0,-999.0,83,0.00,,,0.00,,2017-11-19 07:35:00,
2017-11-19 02:50:00,65.9,61.0,29.96,NNW,338,0.0,-999.0,83,0.00,,,0.00,,2017-11-19 07:50:00,
2017-11-19 02:55:00,65.9,61.0,29.96,NNW,338,0.0,-999.0,83,0.00,,,0.00,,2017-11-19 07:55:00,